sensor_id;sensor_type;location;lat;lon;timestamp;temperature;humidity
44037;DHT22;62488;-37.670;-63.532;2023-03-14T00:02:17;22.10;99.90
44037;DHT22;62488;-37.670;-63.532;2023-03-14T00:04:44;22.10;99.90
44037;DHT22;62488;-37.670;-63.532;2023-03-14T00:07:12;22.10;99.90
44037;DHT22;62488;-37.670;-63.532;2023-03-14T00:09:39;22.00;99.90
44037;DHT22;62488;-37.670;-63.532;2023-03-14T00:12:06;22.00;99.90
44037;DHT22;62488;-37.670;-63.532;2023-03-14T00:14:34;21.90;99.90
44037;DHT22;62488;-37.670;-63.532;2023-03-14T00:17:01;21.90;99.90
44037;DHT22;62488;-37.670;-63.532;2023-03-14T00:19:28;21.90;99.90
44037;DHT22;62488;-37.670;-63.532;2023-03-14T00:21:55;21.90;99.90
44037;DHT22;62488;-37.670;-63.532;2023-03-14T00:24:22;21.80;99.90
44037;DHT22;62488;-37.670;-63.532;2023-03-14T00:26:49;21.80;99.90
44037;DHT22;62488;-37.670;-63.532;2023-03-14T00:29:16;21.80;99.90
44037;DHT22;62488;-37.670;-63.532;2023-03-14T00:31:43;21.70;99.90
44037;DHT22;62488;-37.670;-63.532;2023-03-14T00:34:10;21.60;99.90
44037;DHT22;62488;-37.670;-63.532;2023-03-14T00:36:37;21.60;99.90
44037;DHT22;62488;-37.670;-63.532;2023-03-14T00:39:04;21.60;99.90
44037;DHT22;62488;-37.670;-63.532;2023-03-14T01:16:34;21.10;99.90
44037;DHT22;62488;-37.670;-63.532;2023-03-14T01:19:05;21.40;99.90
44037;DHT22;62488;-37.670;-63.532;2023-03-14T01:21:36;21.40;99.90
44037;DHT22;62488;-37.670;-63.532;2023-03-14T01:24:05;21.50;99.90
44037;DHT22;62488;-37.670;-63.532;2023-03-14T01:26:34;21.30;99.90
44037;DHT22;62488;-37.670;-63.532;2023-03-14T01:29:10;21.20;99.90
44037;DHT22;62488;-37.670;-63.532;2023-03-14T01:31:38;21.10;99.90
44037;DHT22;62488;-37.670;-63.532;2023-03-14T01:34:08;21.20;99.90
44037;DHT22;62488;-37.670;-63.532;2023-03-14T01:36:35;21.10;99.90
44037;DHT22;62488;-37.670;-63.532;2023-03-14T01:39:03;21.10;99.90
44037;DHT22;62488;-37.670;-63.532;2023-03-14T01:41:33;21.10;99.90
44037;DHT22;62488;-37.670;-63.532;2023-03-14T01:44:00;21.10;99.90
44037;DHT22;62488;-37.670;-63.532;2023-03-14T01:54:44;21.00;99.90
44037;DHT22;62488;-37.670;-63.532;2023-03-14T01:57:24;21.00;99.90
44037;DHT22;62488;-37.670;-63.532;2023-03-14T01:59:57;20.80;99.90
44037;DHT22;62488;-37.670;-63.532;2023-03-14T02:02:36;20.90;99.90
44037;DHT22;62488;-37.670;-63.532;2023-03-14T02:05:04;20.90;99.90
44037;DHT22;62488;-37.670;-63.532;2023-03-14T02:07:43;20.90;99.90
44037;DHT22;62488;-37.670;-63.532;2023-03-14T02:10:18;20.80;99.90
44037;DHT22;62488;-37.670;-63.532;2023-03-14T02:12:50;20.90;99.90
44037;DHT22;62488;-37.670;-63.532;2023-03-14T02:15:18;20.90;99.90
44037;DHT22;62488;-37.670;-63.532;2023-03-14T02:17:48;20.90;99.90
44037;DHT22;62488;-37.670;-63.532;2023-03-14T02:22:51;20.90;99.90
44037;DHT22;62488;-37.670;-63.532;2023-03-14T02:25:57;20.90;99.90
44037;DHT22;62488;-37.670;-63.532;2023-03-14T02:28:29;20.90;99.90
44037;DHT22;62488;-37.670;-63.532;2023-03-14T02:30:58;20.90;99.90
44037;DHT22;62488;-37.670;-63.532;2023-03-14T02:33:32;20.80;99.90
44037;DHT22;62488;-37.670;-63.532;2023-03-14T02:36:01;20.80;99.90
44037;DHT22;62488;-37.670;-63.532;2023-03-14T02:38:55;20.80;99.90
44037;DHT22;62488;-37.670;-63.532;2023-03-14T02:41:28;20.90;99.90
44037;DHT22;62488;-37.670;-63.532;2023-03-14T02:43:55;20.80;99.90
44037;DHT22;62488;-37.670;-63.532;2023-03-14T02:46:22;20.90;99.90
44037;DHT22;62488;-37.670;-63.532;2023-03-14T02:48:56;20.80;99.90
44037;DHT22;62488;-37.670;-63.532;2023-03-14T02:51:30;20.90;99.90
44037;DHT22;62488;-37.670;-63.532;2023-03-14T02:54:00;20.90;99.90
44037;DHT22;62488;-37.670;-63.532;2023-03-14T02:56:27;20.90;99.90
44037;DHT22;62488;-37.670;-63.532;2023-03-14T03:11:34;20.80;99.90
44037;DHT22;62488;-37.670;-63.532;2023-03-14T03:14:01;20.70;99.90
44037;DHT22;62488;-37.670;-63.532;2023-03-14T03:16:29;20.70;99.90
44037;DHT22;62488;-37.670;-63.532;2023-03-14T03:18:56;20.70;99.90
44037;DHT22;62488;-37.670;-63.532;2023-03-14T03:21:23;20.60;99.90
44037;DHT22;62488;-37.670;-63.532;2023-03-14T03:23:51;20.60;99.90
44037;DHT22;62488;-37.670;-63.532;2023-03-14T03:26:18;20.60;99.90
44037;DHT22;62488;-37.670;-63.532;2023-03-14T03:28:45;20.50;99.90
44037;DHT22;62488;-37.670;-63.532;2023-03-14T03:31:12;20.50;99.90
44037;DHT22;62488;-37.670;-63.532;2023-03-14T03:33:39;20.60;99.90
44037;DHT22;62488;-37.670;-63.532;2023-03-14T03:36:07;20.50;99.90
44037;DHT22;62488;-37.670;-63.532;2023-03-14T03:38:35;20.50;99.90
44037;DHT22;62488;-37.670;-63.532;2023-03-14T03:41:07;20.50;99.90
44037;DHT22;62488;-37.670;-63.532;2023-03-14T03:43:34;20.50;99.90
44037;DHT22;62488;-37.670;-63.532;2023-03-14T03:46:05;20.50;99.90
44037;DHT22;62488;-37.670;-63.532;2023-03-14T03:48:33;20.50;99.90
44037;DHT22;62488;-37.670;-63.532;2023-03-14T03:51:00;20.50;99.90
44037;DHT22;62488;-37.670;-63.532;2023-03-14T03:53:27;20.50;99.90
44037;DHT22;62488;-37.670;-63.532;2023-03-14T03:55:54;20.50;99.90
44037;DHT22;62488;-37.670;-63.532;2023-03-14T03:58:21;20.50;99.90
44037;DHT22;62488;-37.670;-63.532;2023-03-14T04:00:48;20.60;99.90
44037;DHT22;62488;-37.670;-63.532;2023-03-14T04:03:15;20.60;99.90
44037;DHT22;62488;-37.670;-63.532;2023-03-14T04:05:42;20.60;99.90
44037;DHT22;62488;-37.670;-63.532;2023-03-14T04:08:09;20.60;99.90
44037;DHT22;62488;-37.670;-63.532;2023-03-14T04:10:37;20.60;99.90
44037;DHT22;62488;-37.670;-63.532;2023-03-14T04:13:04;20.60;99.90
44037;DHT22;62488;-37.670;-63.532;2023-03-14T04:15:31;20.60;99.90
44037;DHT22;62488;-37.670;-63.532;2023-03-14T04:17:58;20.50;99.90
44037;DHT22;62488;-37.670;-63.532;2023-03-14T04:20:25;20.50;99.90
44037;DHT22;62488;-37.670;-63.532;2023-03-14T04:22:52;20.40;99.90
44037;DHT22;62488;-37.670;-63.532;2023-03-14T04:25:19;20.50;99.90
44037;DHT22;62488;-37.670;-63.532;2023-03-14T04:27:47;20.50;99.90
44037;DHT22;62488;-37.670;-63.532;2023-03-14T04:30:14;20.40;99.90
44037;DHT22;62488;-37.670;-63.532;2023-03-14T04:32:41;20.40;99.90
44037;DHT22;62488;-37.670;-63.532;2023-03-14T04:35:09;20.40;99.90
44037;DHT22;62488;-37.670;-63.532;2023-03-14T04:37:36;20.40;99.90
44037;DHT22;62488;-37.670;-63.532;2023-03-14T04:40:03;20.50;99.90
44037;DHT22;62488;-37.670;-63.532;2023-03-14T04:42:32;20.50;99.90
44037;DHT22;62488;-37.670;-63.532;2023-03-14T04:45:00;20.40;99.90
44037;DHT22;62488;-37.670;-63.532;2023-03-14T04:47:27;20.30;99.90
44037;DHT22;62488;-37.670;-63.532;2023-03-14T04:49:54;20.40;99.90
44037;DHT22;62488;-37.670;-63.532;2023-03-14T04:52:21;20.40;99.90
44037;DHT22;62488;-37.670;-63.532;2023-03-14T04:54:48;20.40;99.90
44037;DHT22;62488;-37.670;-63.532;2023-03-14T04:57:15;20.40;99.90
44037;DHT22;62488;-37.670;-63.532;2023-03-14T04:59:42;20.40;99.90
44037;DHT22;62488;-37.670;-63.532;2023-03-14T05:02:10;20.40;99.90
44037;DHT22;62488;-37.670;-63.532;2023-03-14T05:04:37;20.40;99.90
44037;DHT22;62488;-37.670;-63.532;2023-03-14T05:07:04;20.40;99.90
44037;DHT22;62488;-37.670;-63.532;2023-03-14T05:09:31;20.40;99.90
44037;DHT22;62488;-37.670;-63.532;2023-03-14T05:11:58;20.40;99.90
44037;DHT22;62488;-37.670;-63.532;2023-03-14T05:14:25;20.40;99.90
44037;DHT22;62488;-37.670;-63.532;2023-03-14T05:16:52;20.40;99.90
44037;DHT22;62488;-37.670;-63.532;2023-03-14T05:19:19;20.40;99.90
44037;DHT22;62488;-37.670;-63.532;2023-03-14T05:21:46;20.40;99.90
44037;DHT22;62488;-37.670;-63.532;2023-03-14T05:24:12;20.40;99.90
44037;DHT22;62488;-37.670;-63.532;2023-03-14T05:26:40;20.30;99.90
44037;DHT22;62488;-37.670;-63.532;2023-03-14T05:29:07;20.30;99.90
44037;DHT22;62488;-37.670;-63.532;2023-03-14T05:31:34;20.30;99.90
44037;DHT22;62488;-37.670;-63.532;2023-03-14T05:34:01;20.30;99.90
44037;DHT22;62488;-37.670;-63.532;2023-03-14T05:36:28;20.30;99.90
44037;DHT22;62488;-37.670;-63.532;2023-03-14T05:38:55;20.30;99.90
44037;DHT22;62488;-37.670;-63.532;2023-03-14T05:41:22;20.30;99.90
44037;DHT22;62488;-37.670;-63.532;2023-03-14T05:43:49;20.30;99.90
44037;DHT22;62488;-37.670;-63.532;2023-03-14T05:46:16;20.30;99.90
44037;DHT22;62488;-37.670;-63.532;2023-03-14T05:48:43;20.30;99.90
44037;DHT22;62488;-37.670;-63.532;2023-03-14T05:51:10;20.30;99.90
44037;DHT22;62488;-37.670;-63.532;2023-03-14T05:53:37;20.20;99.90
44037;DHT22;62488;-37.670;-63.532;2023-03-14T05:56:04;20.30;99.90
44037;DHT22;62488;-37.670;-63.532;2023-03-14T05:58:31;20.20;99.90
44037;DHT22;62488;-37.670;-63.532;2023-03-14T06:01:02;20.20;99.90
44037;DHT22;62488;-37.670;-63.532;2023-03-14T06:03:29;20.20;99.90
44037;DHT22;62488;-37.670;-63.532;2023-03-14T06:05:57;20.10;99.90
44037;DHT22;62488;-37.670;-63.532;2023-03-14T06:08:24;20.10;99.90
44037;DHT22;62488;-37.670;-63.532;2023-03-14T06:10:52;20.10;99.90
44037;DHT22;62488;-37.670;-63.532;2023-03-14T06:13:19;20.10;99.90
44037;DHT22;62488;-37.670;-63.532;2023-03-14T06:15:47;20.00;99.90
44037;DHT22;62488;-37.670;-63.532;2023-03-14T06:18:14;20.00;99.90
44037;DHT22;62488;-37.670;-63.532;2023-03-14T06:20:41;19.90;99.90
44037;DHT22;62488;-37.670;-63.532;2023-03-14T06:23:09;19.90;99.90
44037;DHT22;62488;-37.670;-63.532;2023-03-14T06:25:36;19.90;99.90
44037;DHT22;62488;-37.670;-63.532;2023-03-14T06:28:03;19.90;99.90
44037;DHT22;62488;-37.670;-63.532;2023-03-14T06:30:30;19.90;99.90
44037;DHT22;62488;-37.670;-63.532;2023-03-14T06:32:57;19.80;99.90
44037;DHT22;62488;-37.670;-63.532;2023-03-14T06:35:25;19.80;99.90
44037;DHT22;62488;-37.670;-63.532;2023-03-14T06:37:52;19.80;99.90
44037;DHT22;62488;-37.670;-63.532;2023-03-14T06:40:20;19.80;99.90
44037;DHT22;62488;-37.670;-63.532;2023-03-14T06:42:47;19.80;99.90
44037;DHT22;62488;-37.670;-63.532;2023-03-14T06:45:15;19.80;99.90
44037;DHT22;62488;-37.670;-63.532;2023-03-14T06:47:42;19.80;99.90
44037;DHT22;62488;-37.670;-63.532;2023-03-14T06:50:10;19.80;99.90
44037;DHT22;62488;-37.670;-63.532;2023-03-14T06:52:37;19.70;99.90
44037;DHT22;62488;-37.670;-63.532;2023-03-14T06:55:07;19.70;99.90
44037;DHT22;62488;-37.670;-63.532;2023-03-14T06:57:35;19.70;99.90
44037;DHT22;62488;-37.670;-63.532;2023-03-14T07:00:03;19.60;99.90
44037;DHT22;62488;-37.670;-63.532;2023-03-14T07:02:31;19.60;99.90
44037;DHT22;62488;-37.670;-63.532;2023-03-14T07:04:58;19.50;99.90
44037;DHT22;62488;-37.670;-63.532;2023-03-14T07:07:25;19.50;99.90
44037;DHT22;62488;-37.670;-63.532;2023-03-14T07:09:52;19.60;99.90
44037;DHT22;62488;-37.670;-63.532;2023-03-14T07:12:19;19.60;99.90
44037;DHT22;62488;-37.670;-63.532;2023-03-14T07:14:46;19.60;99.90
44037;DHT22;62488;-37.670;-63.532;2023-03-14T07:17:13;19.60;99.90
44037;DHT22;62488;-37.670;-63.532;2023-03-14T07:19:42;19.60;99.90
44037;DHT22;62488;-37.670;-63.532;2023-03-14T07:22:09;19.60;99.90
44037;DHT22;62488;-37.670;-63.532;2023-03-14T07:24:36;19.60;99.90
44037;DHT22;62488;-37.670;-63.532;2023-03-14T07:27:03;19.60;99.90
44037;DHT22;62488;-37.670;-63.532;2023-03-14T07:29:30;19.70;99.90
44037;DHT22;62488;-37.670;-63.532;2023-03-14T07:31:58;19.70;99.90
44037;DHT22;62488;-37.670;-63.532;2023-03-14T07:34:25;19.70;99.90
44037;DHT22;62488;-37.670;-63.532;2023-03-14T07:36:52;19.70;99.90
44037;DHT22;62488;-37.670;-63.532;2023-03-14T07:39:19;19.70;99.90
44037;DHT22;62488;-37.670;-63.532;2023-03-14T07:41:46;19.70;99.90
44037;DHT22;62488;-37.670;-63.532;2023-03-14T07:44:13;19.70;99.90
44037;DHT22;62488;-37.670;-63.532;2023-03-14T07:46:40;19.70;99.90
44037;DHT22;62488;-37.670;-63.532;2023-03-14T07:49:07;19.70;99.90
44037;DHT22;62488;-37.670;-63.532;2023-03-14T07:51:34;19.60;99.90
44037;DHT22;62488;-37.670;-63.532;2023-03-14T07:54:01;19.60;99.90
44037;DHT22;62488;-37.670;-63.532;2023-03-14T07:56:28;19.60;99.90
44037;DHT22;62488;-37.670;-63.532;2023-03-14T07:58:55;19.60;99.90
44037;DHT22;62488;-37.670;-63.532;2023-03-14T08:01:23;19.60;99.90
44037;DHT22;62488;-37.670;-63.532;2023-03-14T08:03:50;19.60;99.90
44037;DHT22;62488;-37.670;-63.532;2023-03-14T08:06:17;19.60;99.90
44037;DHT22;62488;-37.670;-63.532;2023-03-14T08:08:44;19.60;99.90
44037;DHT22;62488;-37.670;-63.532;2023-03-14T08:11:11;19.60;99.90
44037;DHT22;62488;-37.670;-63.532;2023-03-14T08:13:38;19.60;99.90
44037;DHT22;62488;-37.670;-63.532;2023-03-14T08:16:06;19.60;99.90
44037;DHT22;62488;-37.670;-63.532;2023-03-14T08:18:33;19.60;99.90
44037;DHT22;62488;-37.670;-63.532;2023-03-14T08:21:00;19.60;99.90
44037;DHT22;62488;-37.670;-63.532;2023-03-14T08:23:27;19.60;99.90
44037;DHT22;62488;-37.670;-63.532;2023-03-14T08:25:54;19.60;99.90
44037;DHT22;62488;-37.670;-63.532;2023-03-14T08:28:21;19.60;99.90
44037;DHT22;62488;-37.670;-63.532;2023-03-14T08:30:48;19.70;99.90
44037;DHT22;62488;-37.670;-63.532;2023-03-14T08:33:15;19.70;99.90
44037;DHT22;62488;-37.670;-63.532;2023-03-14T08:35:42;19.60;99.90
44037;DHT22;62488;-37.670;-63.532;2023-03-14T08:38:09;19.60;99.90
44037;DHT22;62488;-37.670;-63.532;2023-03-14T08:40:36;19.60;99.90
44037;DHT22;62488;-37.670;-63.532;2023-03-14T08:43:03;19.60;99.90
44037;DHT22;62488;-37.670;-63.532;2023-03-14T08:45:30;19.60;99.90
44037;DHT22;62488;-37.670;-63.532;2023-03-14T08:47:58;19.60;99.90
44037;DHT22;62488;-37.670;-63.532;2023-03-14T08:50:25;19.60;99.90
44037;DHT22;62488;-37.670;-63.532;2023-03-14T08:52:53;19.60;99.90
44037;DHT22;62488;-37.670;-63.532;2023-03-14T08:55:20;19.60;99.90
44037;DHT22;62488;-37.670;-63.532;2023-03-14T08:57:47;19.60;99.90
44037;DHT22;62488;-37.670;-63.532;2023-03-14T09:00:14;19.60;99.90
44037;DHT22;62488;-37.670;-63.532;2023-03-14T09:02:42;19.60;99.90
44037;DHT22;62488;-37.670;-63.532;2023-03-14T09:05:09;19.60;99.90
44037;DHT22;62488;-37.670;-63.532;2023-03-14T09:07:37;19.60;99.90
44037;DHT22;62488;-37.670;-63.532;2023-03-14T09:10:05;19.60;99.90
44037;DHT22;62488;-37.670;-63.532;2023-03-14T09:12:32;19.60;99.90
44037;DHT22;62488;-37.670;-63.532;2023-03-14T09:14:59;19.60;99.90
44037;DHT22;62488;-37.670;-63.532;2023-03-14T09:17:26;19.60;99.90
44037;DHT22;62488;-37.670;-63.532;2023-03-14T09:19:56;19.50;99.90
44037;DHT22;62488;-37.670;-63.532;2023-03-14T09:22:23;19.60;99.90
44037;DHT22;62488;-37.670;-63.532;2023-03-14T09:24:50;19.50;99.90
44037;DHT22;62488;-37.670;-63.532;2023-03-14T09:27:17;19.50;99.90
44037;DHT22;62488;-37.670;-63.532;2023-03-14T09:29:44;19.50;99.90
44037;DHT22;62488;-37.670;-63.532;2023-03-14T09:32:11;19.50;99.90
44037;DHT22;62488;-37.670;-63.532;2023-03-14T09:34:38;19.50;99.90
44037;DHT22;62488;-37.670;-63.532;2023-03-14T09:37:05;19.50;99.90
44037;DHT22;62488;-37.670;-63.532;2023-03-14T09:39:32;19.50;99.90
44037;DHT22;62488;-37.670;-63.532;2023-03-14T09:42:03;19.50;99.90
44037;DHT22;62488;-37.670;-63.532;2023-03-14T09:44:37;19.60;99.90
44037;DHT22;62488;-37.670;-63.532;2023-03-14T09:47:10;19.60;99.90
44037;DHT22;62488;-37.670;-63.532;2023-03-14T09:49:40;19.60;99.90
44037;DHT22;62488;-37.670;-63.532;2023-03-14T09:52:14;19.60;99.90
44037;DHT22;62488;-37.670;-63.532;2023-03-14T09:54:50;19.60;99.90
44037;DHT22;62488;-37.670;-63.532;2023-03-14T09:57:26;19.60;99.90
44037;DHT22;62488;-37.670;-63.532;2023-03-14T10:00:03;19.70;99.90
44037;DHT22;62488;-37.670;-63.532;2023-03-14T10:02:42;19.70;99.90
44037;DHT22;62488;-37.670;-63.532;2023-03-14T10:05:17;19.70;99.90
44037;DHT22;62488;-37.670;-63.532;2023-03-14T10:07:45;19.70;99.90
44037;DHT22;62488;-37.670;-63.532;2023-03-14T10:10:24;19.70;99.90
44037;DHT22;62488;-37.670;-63.532;2023-03-14T10:12:58;19.70;99.90
44037;DHT22;62488;-37.670;-63.532;2023-03-14T10:15:33;19.70;99.90
44037;DHT22;62488;-37.670;-63.532;2023-03-14T10:18:03;19.70;99.90
44037;DHT22;62488;-37.670;-63.532;2023-03-14T10:20:38;19.60;99.90
44037;DHT22;62488;-37.670;-63.532;2023-03-14T10:23:23;19.70;99.90
44037;DHT22;62488;-37.670;-63.532;2023-03-14T10:26:03;19.70;99.90
44037;DHT22;62488;-37.670;-63.532;2023-03-14T10:28:55;19.70;99.90
44037;DHT22;62488;-37.670;-63.532;2023-03-14T10:31:25;19.70;99.90
44037;DHT22;62488;-37.670;-63.532;2023-03-14T10:34:22;19.70;99.90
44037;DHT22;62488;-37.670;-63.532;2023-03-14T10:37:07;19.70;99.90
44037;DHT22;62488;-37.670;-63.532;2023-03-14T10:39:46;19.70;99.90
44037;DHT22;62488;-37.670;-63.532;2023-03-14T10:42:28;19.70;99.90
44037;DHT22;62488;-37.670;-63.532;2023-03-14T10:45:06;19.70;99.90
44037;DHT22;62488;-37.670;-63.532;2023-03-14T10:47:38;19.70;99.90
44037;DHT22;62488;-37.670;-63.532;2023-03-14T10:50:25;19.80;99.90
44037;DHT22;62488;-37.670;-63.532;2023-03-14T10:52:54;19.80;99.90
44037;DHT22;62488;-37.670;-63.532;2023-03-14T10:55:23;19.80;99.90
44037;DHT22;62488;-37.670;-63.532;2023-03-14T10:57:51;19.80;99.90
44037;DHT22;62488;-37.670;-63.532;2023-03-14T11:00:22;19.80;99.90
44037;DHT22;62488;-37.670;-63.532;2023-03-14T11:03:09;19.80;99.90
44037;DHT22;62488;-37.670;-63.532;2023-03-14T11:11:22;19.90;99.90
44037;DHT22;62488;-37.670;-63.532;2023-03-14T11:23:02;20.00;99.90
44037;DHT22;62488;-37.670;-63.532;2023-03-14T11:25:30;20.00;99.90
44037;DHT22;62488;-37.670;-63.532;2023-03-14T11:30:55;20.10;99.90
44037;DHT22;62488;-37.670;-63.532;2023-03-14T11:33:35;20.10;99.90
44037;DHT22;62488;-37.670;-63.532;2023-03-14T11:36:12;20.10;99.90
44037;DHT22;62488;-37.670;-63.532;2023-03-14T11:38:51;20.20;99.90
44037;DHT22;62488;-37.670;-63.532;2023-03-14T11:41:36;20.20;99.90
44037;DHT22;62488;-37.670;-63.532;2023-03-14T11:44:55;20.30;99.90
44037;DHT22;62488;-37.670;-63.532;2023-03-14T11:55:00;20.60;99.90
44037;DHT22;62488;-37.670;-63.532;2023-03-14T11:57:30;20.60;99.90
44037;DHT22;62488;-37.670;-63.532;2023-03-14T12:00:17;20.70;99.90
44037;DHT22;62488;-37.670;-63.532;2023-03-14T12:02:58;20.80;99.90
44037;DHT22;62488;-37.670;-63.532;2023-03-14T12:05:34;20.90;99.90
44037;DHT22;62488;-37.670;-63.532;2023-03-14T12:10:52;20.90;99.90
44037;DHT22;62488;-37.670;-63.532;2023-03-14T12:13:20;21.10;99.90
44037;DHT22;62488;-37.670;-63.532;2023-03-14T12:15:59;21.10;99.90
44037;DHT22;62488;-37.670;-63.532;2023-03-14T12:18:29;21.30;99.90
44037;DHT22;62488;-37.670;-63.532;2023-03-14T12:21:03;21.40;99.90
44037;DHT22;62488;-37.670;-63.532;2023-03-14T12:23:52;21.60;99.90
44037;DHT22;62488;-37.670;-63.532;2023-03-14T12:26:22;21.90;99.90
44037;DHT22;62488;-37.670;-63.532;2023-03-14T12:42:10;23.20;99.90
44037;DHT22;62488;-37.670;-63.532;2023-03-14T12:44:50;23.50;99.90
44037;DHT22;62488;-37.670;-63.532;2023-03-14T12:49:49;24.00;99.90
44037;DHT22;62488;-37.670;-63.532;2023-03-14T12:52:33;24.10;99.90
44037;DHT22;62488;-37.670;-63.532;2023-03-14T12:55:15;24.60;99.90
44037;DHT22;62488;-37.670;-63.532;2023-03-14T13:00:32;24.70;99.90
44037;DHT22;62488;-37.670;-63.532;2023-03-14T13:05:53;24.90;99.90
44037;DHT22;62488;-37.670;-63.532;2023-03-14T13:08:53;25.00;99.90
44037;DHT22;62488;-37.670;-63.532;2023-03-14T13:11:23;25.10;99.90
44037;DHT22;62488;-37.670;-63.532;2023-03-14T13:13:57;25.30;99.90
44037;DHT22;62488;-37.670;-63.532;2023-03-14T13:16:25;25.40;99.90
44037;DHT22;62488;-37.670;-63.532;2023-03-14T13:19:03;25.60;99.90
44037;DHT22;62488;-37.670;-63.532;2023-03-14T13:21:37;25.70;99.90
44037;DHT22;62488;-37.670;-63.532;2023-03-14T13:24:20;26.00;99.90
44037;DHT22;62488;-37.670;-63.532;2023-03-14T13:26:47;26.10;99.90
44037;DHT22;62488;-37.670;-63.532;2023-03-14T13:31:56;26.50;99.90
44037;DHT22;62488;-37.670;-63.532;2023-03-14T13:34:34;26.40;99.90
44037;DHT22;62488;-37.670;-63.532;2023-03-14T13:37:01;26.60;99.90
44037;DHT22;62488;-37.670;-63.532;2023-03-14T13:39:29;26.80;99.90
44037;DHT22;62488;-37.670;-63.532;2023-03-14T13:42:01;27.20;99.90
44037;DHT22;62488;-37.670;-63.532;2023-03-14T13:44:38;27.50;99.90
44037;DHT22;62488;-37.670;-63.532;2023-03-14T13:47:17;27.30;99.90
44037;DHT22;62488;-37.670;-63.532;2023-03-14T13:49:45;27.30;99.90
44037;DHT22;62488;-37.670;-63.532;2023-03-14T13:52:36;27.50;99.90
44037;DHT22;62488;-37.670;-63.532;2023-03-14T13:55:05;27.40;99.90
44037;DHT22;62488;-37.670;-63.532;2023-03-14T13:57:50;27.60;99.90
44037;DHT22;62488;-37.670;-63.532;2023-03-14T14:00:22;27.70;99.90
44037;DHT22;62488;-37.670;-63.532;2023-03-14T14:02:57;27.90;99.90
44037;DHT22;62488;-37.670;-63.532;2023-03-14T14:05:27;28.20;99.90
44037;DHT22;62488;-37.670;-63.532;2023-03-14T14:07:56;28.40;99.90
44037;DHT22;62488;-37.670;-63.532;2023-03-14T14:10:23;28.60;99.90
44037;DHT22;62488;-37.670;-63.532;2023-03-14T14:12:58;28.30;99.90
44037;DHT22;62488;-37.670;-63.532;2023-03-14T14:15:29;28.60;99.90
44037;DHT22;62488;-37.670;-63.532;2023-03-14T14:18:05;28.40;99.90
44037;DHT22;62488;-37.670;-63.532;2023-03-14T14:20:42;28.10;99.90
44037;DHT22;62488;-37.670;-63.532;2023-03-14T14:23:22;28.40;99.90
44037;DHT22;62488;-37.670;-63.532;2023-03-14T14:25:53;28.70;99.90
44037;DHT22;62488;-37.670;-63.532;2023-03-14T14:28:30;28.60;99.90
44037;DHT22;62488;-37.670;-63.532;2023-03-14T14:31:16;28.50;99.90
44037;DHT22;62488;-37.670;-63.532;2023-03-14T14:34:02;28.40;99.90
44037;DHT22;62488;-37.670;-63.532;2023-03-14T14:36:36;28.10;99.90
44037;DHT22;62488;-37.670;-63.532;2023-03-14T14:41:45;28.20;99.90
44037;DHT22;62488;-37.670;-63.532;2023-03-14T14:44:18;28.30;99.90
44037;DHT22;62488;-37.670;-63.532;2023-03-14T14:46:50;28.50;99.90
44037;DHT22;62488;-37.670;-63.532;2023-03-14T14:49:19;28.40;99.90
44037;DHT22;62488;-37.670;-63.532;2023-03-14T14:51:50;28.70;99.90
44037;DHT22;62488;-37.670;-63.532;2023-03-14T14:54:20;29.20;99.90
44037;DHT22;62488;-37.670;-63.532;2023-03-14T14:57:03;29.30;99.90
44037;DHT22;62488;-37.670;-63.532;2023-03-14T14:59:30;29.20;99.90
44037;DHT22;62488;-37.670;-63.532;2023-03-14T15:01:59;29.00;99.90
44037;DHT22;62488;-37.670;-63.532;2023-03-14T15:04:30;29.30;99.90
44037;DHT22;62488;-37.670;-63.532;2023-03-14T15:06:57;29.60;99.90
44037;DHT22;62488;-37.670;-63.532;2023-03-14T15:09:24;30.00;99.90
44037;DHT22;62488;-37.670;-63.532;2023-03-14T15:11:51;30.10;99.90
44037;DHT22;62488;-37.670;-63.532;2023-03-14T15:14:18;30.70;99.40
44037;DHT22;62488;-37.670;-63.532;2023-03-14T15:16:45;31.30;98.50
44037;DHT22;62488;-37.670;-63.532;2023-03-14T15:19:24;30.90;98.50
44037;DHT22;62488;-37.670;-63.532;2023-03-14T15:21:53;30.90;99.60
44037;DHT22;62488;-37.670;-63.532;2023-03-14T15:24:20;31.00;98.40
44037;DHT22;62488;-37.670;-63.532;2023-03-14T15:26:47;31.00;98.90
44037;DHT22;62488;-37.670;-63.532;2023-03-14T15:29:14;31.30;98.50
44037;DHT22;62488;-37.670;-63.532;2023-03-14T15:31:42;31.30;98.20
44037;DHT22;62488;-37.670;-63.532;2023-03-14T15:34:12;31.30;98.00
44037;DHT22;62488;-37.670;-63.532;2023-03-14T15:36:39;30.80;98.00
44037;DHT22;62488;-37.670;-63.532;2023-03-14T15:39:07;30.30;99.00
44037;DHT22;62488;-37.670;-63.532;2023-03-14T15:41:34;30.60;99.30
44037;DHT22;62488;-37.670;-63.532;2023-03-14T15:44:01;30.70;98.80
44037;DHT22;62488;-37.670;-63.532;2023-03-14T15:46:28;30.50;99.10
44037;DHT22;62488;-37.670;-63.532;2023-03-14T15:48:55;30.30;99.20
44037;DHT22;62488;-37.670;-63.532;2023-03-14T15:51:22;30.40;99.20
44037;DHT22;62488;-37.670;-63.532;2023-03-14T15:53:49;31.00;98.90
44037;DHT22;62488;-37.670;-63.532;2023-03-14T15:56:19;31.30;97.90
44037;DHT22;62488;-37.670;-63.532;2023-03-14T15:58:46;31.50;97.50
44037;DHT22;62488;-37.670;-63.532;2023-03-14T16:01:14;31.30;97.70
44037;DHT22;62488;-37.670;-63.532;2023-03-14T16:03:45;31.70;98.30
44037;DHT22;62488;-37.670;-63.532;2023-03-14T16:06:13;31.90;96.50
44037;DHT22;62488;-37.670;-63.532;2023-03-14T16:08:40;31.30;96.20
44037;DHT22;62488;-37.670;-63.532;2023-03-14T16:11:10;31.30;96.40
44037;DHT22;62488;-37.670;-63.532;2023-03-14T16:13:38;31.90;97.00
44037;DHT22;62488;-37.670;-63.532;2023-03-14T16:16:05;32.00;96.60
44037;DHT22;62488;-37.670;-63.532;2023-03-14T16:18:35;31.90;97.10
44037;DHT22;62488;-37.670;-63.532;2023-03-14T16:21:08;31.70;96.40
44037;DHT22;62488;-37.670;-63.532;2023-03-14T16:23:37;31.60;96.40
44037;DHT22;62488;-37.670;-63.532;2023-03-14T16:26:06;32.00;96.40
44037;DHT22;62488;-37.670;-63.532;2023-03-14T16:28:34;31.50;97.20
44037;DHT22;62488;-37.670;-63.532;2023-03-14T16:31:03;31.90;98.10
44037;DHT22;62488;-37.670;-63.532;2023-03-14T16:33:31;31.70;96.70
44037;DHT22;62488;-37.670;-63.532;2023-03-14T16:36:00;31.60;95.30
44037;DHT22;62488;-37.670;-63.532;2023-03-14T16:38:31;31.60;95.60
44037;DHT22;62488;-37.670;-63.532;2023-03-14T16:41:10;31.40;95.80
44037;DHT22;62488;-37.670;-63.532;2023-03-14T16:43:38;31.30;96.30
44037;DHT22;62488;-37.670;-63.532;2023-03-14T16:46:09;31.30;96.50
44037;DHT22;62488;-37.670;-63.532;2023-03-14T16:48:37;31.10;95.80
44037;DHT22;62488;-37.670;-63.532;2023-03-14T16:51:05;30.40;96.50
44037;DHT22;62488;-37.670;-63.532;2023-03-14T16:53:32;30.80;97.90
44037;DHT22;62488;-37.670;-63.532;2023-03-14T16:55:59;30.60;97.20
44037;DHT22;62488;-37.670;-63.532;2023-03-14T16:58:26;30.80;96.50
44037;DHT22;62488;-37.670;-63.532;2023-03-14T17:00:56;31.00;97.40